createdAt,value
2018-05-27T00:00:40.932Z,57.78
2018-05-27T00:01:41.014Z,57.39
2018-05-27T00:02:40.984Z,57.29
2018-05-27T00:03:40.984Z,57.29
2018-05-27T00:04:41.261Z,57.56
2018-05-27T00:05:41.251Z,58.04
2018-05-27T00:06:41.071Z,58.65
2018-05-27T00:07:41.060Z,57.68
2018-05-27T00:08:41.152Z,57.75
2018-05-27T00:09:41.361Z,58.23
2018-05-27T00:10:41.471Z,58.72
2018-05-27T00:12:41.157Z,58.72
2018-05-27T00:13:41.201Z,59.30
2018-05-27T00:14:41.197Z,58.91
2018-05-27T00:15:41.227Z,58.91
2018-05-27T00:16:41.242Z,58.52
2018-05-27T00:17:41.252Z,59.30
2018-05-27T00:18:41.288Z,58.42
2018-05-27T00:19:41.297Z,59.30
2018-05-27T00:20:41.319Z,59.68
2018-05-27T00:21:41.330Z,58.72
2018-05-27T00:22:41.346Z,58.33
2018-05-27T00:23:42.031Z,58.62
2018-05-27T00:24:41.574Z,60.26
2018-05-27T00:25:41.403Z,59.30
2018-05-27T00:26:41.423Z,59.27
2018-05-27T00:27:41.446Z,59.27
2018-05-27T00:28:41.467Z,58.97
2018-05-27T00:29:41.518Z,60.42
2018-05-27T00:30:41.499Z,59.55
2018-05-27T00:31:41.527Z,60.71
2018-05-27T00:32:41.701Z,60.23
2018-05-27T00:33:41.720Z,59.94
2018-05-27T00:34:41.576Z,60.23
2018-05-27T00:35:41.948Z,60.83
2018-05-27T00:36:41.956Z,60.13
2018-05-27T00:37:41.634Z,60.61
2018-05-27T00:38:41.663Z,60.23
2018-05-27T00:39:41.672Z,61.00
2018-05-27T00:40:41.703Z,60.13
2018-05-27T00:42:41.743Z,60.42
2018-05-27T00:43:41.799Z,60.61
2018-05-27T00:44:41.846Z,60.61
2018-05-27T00:45:41.786Z,60.42
2018-05-27T00:46:41.806Z,60.71
2018-05-27T00:47:41.820Z,60.61
2018-05-27T00:48:41.839Z,60.52
2018-05-27T00:49:41.857Z,60.71
2018-05-27T00:50:41.881Z,61.38
2018-05-27T00:51:41.945Z,60.42
2018-05-27T00:52:41.924Z,60.52
2018-05-27T00:53:41.939Z,60.71
2018-05-27T00:54:41.951Z,61.10
2018-05-27T00:55:41.997Z,61.00
2018-05-27T00:56:41.992Z,60.71
2018-05-27T00:57:42.056Z,61.48
2018-05-27T00:58:42.077Z,61.58
2018-05-27T00:59:42.050Z,61.10
2018-05-27T01:00:42.112Z,60.80
2018-05-27T01:01:42.246Z,61.58
2018-05-27T01:02:42.101Z,61.38
2018-05-27T01:03:42.299Z,61.00
2018-05-27T01:04:42.153Z,61.83
2018-05-27T01:05:42.199Z,61.96
2018-05-27T01:06:42.201Z,62.73
2018-05-27T01:07:42.213Z,62.45
2018-05-27T01:08:42.224Z,62.70
2018-05-27T01:09:42.316Z,62.45
2018-05-27T01:10:42.290Z,62.73
2018-05-27T01:11:42.322Z,62.12
2018-05-27T01:12:42.320Z,62.51
2018-05-27T01:13:42.324Z,62.51
2018-05-27T01:14:42.432Z,62.70
2018-05-27T01:15:42.417Z,62.51
2018-05-27T01:16:42.366Z,62.60
2018-05-27T01:17:42.433Z,62.12
2018-05-27T01:18:42.769Z,62.51
2018-05-27T01:19:42.437Z,63.09
2018-05-27T01:20:42.523Z,62.51
2018-05-27T01:21:42.459Z,62.12
2018-05-27T01:22:42.479Z,62.99
2018-05-27T01:23:42.496Z,62.60
2018-05-27T01:24:42.763Z,62.70
2018-05-27T01:25:42.584Z,63.18
2018-05-27T01:26:42.588Z,62.60
2018-05-27T01:28:42.705Z,63.57
2018-05-27T01:29:42.709Z,63.09
2018-05-27T01:30:42.629Z,62.80
2018-05-27T01:31:42.758Z,63.57
2018-05-27T01:32:42.772Z,63.85
2018-05-27T01:33:42.735Z,63.57
2018-05-27T01:34:42.722Z,63.54
2018-05-27T01:35:42.738Z,63.18
2018-05-27T01:36:42.742Z,62.90
2018-05-27T01:37:42.791Z,62.90
2018-05-27T01:38:42.780Z,63.18
2018-05-27T01:39:42.795Z,63.85
2018-05-27T01:40:42.813Z,63.44
2018-05-27T01:41:42.840Z,63.64
2018-05-27T01:42:42.875Z,64.12
2018-05-27T01:43:42.929Z,64.12
2018-05-27T01:44:42.960Z,64.21
2018-05-27T01:45:42.931Z,64.89
2018-05-27T01:46:42.933Z,64.69
2018-05-27T01:47:42.995Z,64.21
2018-05-27T01:48:43.130Z,64.21
2018-05-27T01:49:43.369Z,64.79
2018-05-27T01:50:43.302Z,64.69
2018-05-27T01:51:43.240Z,64.98
2018-05-27T01:52:43.039Z,64.50
2018-05-27T01:53:43.061Z,64.69
2018-05-27T01:54:43.076Z,64.31
2018-05-27T01:55:43.174Z,64.79
2018-05-27T01:56:43.124Z,64.79
2018-05-27T01:57:43.159Z,64.08
2018-05-27T01:58:43.160Z,64.66
2018-05-27T01:59:43.200Z,64.31
2018-05-27T02:00:43.197Z,64.37
2018-05-27T02:01:43.224Z,64.89
2018-05-27T02:02:43.237Z,64.56
2018-05-27T02:03:43.449Z,65.53
2018-05-27T02:04:43.259Z,64.95
2018-05-27T02:05:43.282Z,64.86
2018-05-27T02:06:43.298Z,64.66
2018-05-27T02:07:43.511Z,65.63
2018-05-27T02:08:43.350Z,64.86
2018-05-27T02:09:43.350Z,65.14
2018-05-27T02:10:43.371Z,65.63
2018-05-27T02:11:43.491Z,64.86
2018-05-27T02:12:43.412Z,65.05
2018-05-27T02:13:43.423Z,64.86
2018-05-27T02:14:43.444Z,64.95
2018-05-27T02:15:43.461Z,65.43
2018-05-27T02:16:43.503Z,64.95
2018-05-27T02:17:43.499Z,65.53
2018-05-27T02:18:43.537Z,64.76
2018-05-27T02:19:43.536Z,65.33
2018-05-27T02:20:43.552Z,65.53
2018-05-27T02:21:43.579Z,65.81
2018-05-27T02:22:43.595Z,66.39
2018-05-27T02:23:43.611Z,66.39
2018-05-27T02:24:43.736Z,66.30
2018-05-27T02:25:43.653Z,65.81
2018-05-27T02:26:43.662Z,65.63
2018-05-27T02:27:44.091Z,65.72
2018-05-27T02:28:43.699Z,65.63
2018-05-27T02:29:43.717Z,66.49
2018-05-27T02:30:43.736Z,66.20
2018-05-27T02:31:43.759Z,66.20
2018-05-27T02:32:43.773Z,66.36
2018-05-27T02:33:43.790Z,66.46
2018-05-27T02:34:43.873Z,66.65
2018-05-27T02:35:43.830Z,66.36
2018-05-27T02:36:43.847Z,66.36
2018-05-27T02:37:43.863Z,66.65
2018-05-27T02:38:43.886Z,66.94
2018-05-27T02:39:43.903Z,67.42
2018-05-27T02:40:43.923Z,67.32
2018-05-27T02:41:43.939Z,67.22
2018-05-27T02:42:43.958Z,67.42
2018-05-27T02:43:44.193Z,67.93
2018-05-27T02:44:43.993Z,66.74
2018-05-27T02:45:44.012Z,66.74
2018-05-27T02:46:44.028Z,66.30
2018-05-27T02:47:44.047Z,67.42
2018-05-27T02:48:44.065Z,67.45
2018-05-27T02:49:44.082Z,67.45
2018-05-27T02:50:44.101Z,66.36
2018-05-27T02:51:44.123Z,67.22
2018-05-27T02:52:44.198Z,67.65
2018-05-27T02:53:44.158Z,67.51
2018-05-27T02:54:44.174Z,68.19
2018-05-27T02:55:44.192Z,67.90
2018-05-27T02:56:44.212Z,68.48
2018-05-27T02:57:44.244Z,68.29
2018-05-27T02:58:44.393Z,67.07
2018-05-27T02:59:44.473Z,67.80
2018-05-27T03:00:44.333Z,67.99
2018-05-27T03:01:44.302Z,67.22
2018-05-27T03:02:44.328Z,68.09
2018-05-27T03:03:44.340Z,68.09
2018-05-27T03:04:44.361Z,67.99
2018-05-27T03:05:44.373Z,67.90
2018-05-27T03:06:44.393Z,68.38
2018-05-27T03:07:44.409Z,68.76
2018-05-27T03:08:44.432Z,70.07
2018-05-27T03:09:44.451Z,69.60
2018-05-27T03:10:44.463Z,68.92
2018-05-27T03:11:44.486Z,69.89
2018-05-27T03:12:44.501Z,69.40
2018-05-27T03:13:44.526Z,69.31
2018-05-27T03:14:44.535Z,70.07
2018-05-27T03:15:44.554Z,69.02
2018-05-27T03:16:44.583Z,69.12
2018-05-27T03:17:44.591Z,69.92
2018-05-27T03:18:44.609Z,69.12
2018-05-27T03:19:44.628Z,69.21
2018-05-27T03:20:44.646Z,69.92
2018-05-27T03:21:44.662Z,70.11
2018-05-27T03:22:44.685Z,69.44
2018-05-27T03:23:44.699Z,68.76
2018-05-27T03:24:44.721Z,69.24
2018-05-27T03:25:44.736Z,69.63
2018-05-27T03:26:44.752Z,69.12
2018-05-27T03:27:44.774Z,70.07
2018-05-27T03:28:44.789Z,69.21
2018-05-27T03:29:44.806Z,69.82
2018-05-27T03:30:44.891Z,70.07
2018-05-27T03:31:44.845Z,68.86
2018-05-27T03:32:44.860Z,68.76
2018-05-27T03:33:44.903Z,69.89
2018-05-27T03:34:44.906Z,69.73
2018-05-27T03:35:44.918Z,69.92
2018-05-27T03:36:44.934Z,70.21
2018-05-27T03:37:44.955Z,70.01
2018-05-27T03:38:44.976Z,69.69
2018-05-27T03:39:44.992Z,69.50
2018-05-27T03:40:45.010Z,69.12
2018-05-27T03:41:45.031Z,69.31
2018-05-27T03:42:45.073Z,69.12
2018-05-27T03:43:45.062Z,70.11
2018-05-27T03:44:45.082Z,70.01
2018-05-27T03:45:45.101Z,70.07
2018-05-27T03:46:45.116Z,69.50
2018-05-27T03:47:45.136Z,69.63
2018-05-27T03:48:45.151Z,69.98
2018-05-27T03:49:45.178Z,70.17
2018-05-27T03:50:45.191Z,70.07
2018-05-27T03:51:45.205Z,70.07
2018-05-27T03:52:45.454Z,69.50
2018-05-27T03:53:45.245Z,70.17
2018-05-27T03:54:45.259Z,69.40
2018-05-27T03:55:45.278Z,70.27
2018-05-27T03:56:45.314Z,70.46
2018-05-27T03:57:45.317Z,70.56
2018-05-27T03:58:45.343Z,70.84
2018-05-27T03:59:45.352Z,70.84
2018-05-27T04:00:45.367Z,70.37
2018-05-27T04:01:45.387Z,70.07
2018-05-27T04:03:45.487Z,70.65
2018-05-27T04:04:45.440Z,71.91
2018-05-27T04:05:45.459Z,70.75
2018-05-27T04:06:45.489Z,70.56
2018-05-27T04:07:45.503Z,70.27
2018-05-27T04:08:45.516Z,70.37
2018-05-27T04:09:45.532Z,70.17
2018-05-27T04:10:45.547Z,70.46
2018-05-27T04:11:45.566Z,69.98
2018-05-27T04:12:45.587Z,70.84
2018-05-27T04:13:45.605Z,71.14
2018-05-27T04:14:45.622Z,71.14
2018-05-27T04:15:45.638Z,70.46
2018-05-27T04:16:45.683Z,71.91
2018-05-27T04:17:45.674Z,71.04
2018-05-27T04:18:45.698Z,70.17
2018-05-27T04:19:45.711Z,70.46
2018-05-27T04:20:45.731Z,71.04
2018-05-27T04:21:45.747Z,69.60
2018-05-27T04:22:45.764Z,71.04
2018-05-27T04:23:45.791Z,70.07
2018-05-27T04:24:45.801Z,70.56
2018-05-27T04:25:45.871Z,70.37
2018-05-27T04:26:45.839Z,70.75
2018-05-27T04:27:45.897Z,71.23
2018-05-27T04:28:45.884Z,71.42
2018-05-27T04:29:45.888Z,70.17
2018-05-27T04:30:45.909Z,70.84
2018-05-27T04:31:45.926Z,71.61
2018-05-27T04:32:45.949Z,71.33
2018-05-27T04:33:46.031Z,71.04
2018-05-27T04:34:45.978Z,71.81
2018-05-27T04:35:46.018Z,71.14
2018-05-27T04:36:46.218Z,70.84
2018-05-27T04:37:46.093Z,70.94
2018-05-27T04:38:46.052Z,71.33
2018-05-27T04:39:46.071Z,71.23
2018-05-27T04:40:46.088Z,71.33
2018-05-27T04:41:46.109Z,71.52
2018-05-27T04:42:46.124Z,70.65
2018-05-27T04:43:46.141Z,70.65
2018-05-27T04:44:46.167Z,70.56
2018-05-27T04:45:46.225Z,70.56
2018-05-27T04:46:46.208Z,69.79
2018-05-27T04:47:46.263Z,69.69
2018-05-27T04:48:46.231Z,69.79
2018-05-27T04:49:46.251Z,69.79
2018-05-27T04:50:46.285Z,70.30
2018-05-27T04:51:46.287Z,70.30
2018-05-27T04:52:46.303Z,70.50
2018-05-27T04:53:46.328Z,70.40
2018-05-27T04:54:46.341Z,70.11
2018-05-27T04:55:46.357Z,71.55
2018-05-27T04:56:46.381Z,69.53
2018-05-27T04:57:46.395Z,70.30
2018-05-27T04:58:46.410Z,69.92
2018-05-27T04:59:46.430Z,70.11
2018-05-27T05:00:46.465Z,71.08
2018-05-27T05:01:46.479Z,70.59
2018-05-27T05:02:46.482Z,70.59
2018-05-27T05:03:46.506Z,69.82
2018-05-27T05:04:46.525Z,69.63
2018-05-27T05:05:46.539Z,69.92
2018-05-27T05:06:46.555Z,69.53
2018-05-27T05:07:46.574Z,69.53
2018-05-27T05:08:46.597Z,69.92
2018-05-27T05:09:46.612Z,69.34
2018-05-27T05:10:46.658Z,70.21
2018-05-27T05:11:46.660Z,70.11
2018-05-27T05:12:46.662Z,70.15
2018-05-27T05:13:46.681Z,69.85
2018-05-27T05:14:46.702Z,69.18
2018-05-27T05:15:46.719Z,70.05
2018-05-27T05:16:46.736Z,69.09
2018-05-27T05:17:46.755Z,69.28
2018-05-27T05:18:46.771Z,69.18
2018-05-27T05:19:46.792Z,69.18
2018-05-27T05:20:46.806Z,69.47
2018-05-27T05:21:47.264Z,69.57
2018-05-27T05:22:46.847Z,70.34
2018-05-27T05:23:46.859Z,69.47
2018-05-27T05:24:46.878Z,69.95
2018-05-27T05:25:46.899Z,69.57
2018-05-27T05:26:46.918Z,69.95
2018-05-27T05:27:46.934Z,69.18
2018-05-27T05:28:46.961Z,68.99
2018-05-27T05:29:46.975Z,70.15
2018-05-27T05:30:47.080Z,69.38
2018-05-27T05:31:47.073Z,69.18
2018-05-27T05:32:47.039Z,69.85
2018-05-27T05:33:47.042Z,69.28
2018-05-27T05:34:47.064Z,69.28
2018-05-27T05:35:47.081Z,68.99
2018-05-27T05:36:47.099Z,69.28
2018-05-27T05:37:47.205Z,69.57
2018-05-27T05:38:47.143Z,69.57
2018-05-27T05:39:47.153Z,69.18
2018-05-27T05:40:47.173Z,70.15
2018-05-27T05:41:47.250Z,70.34
2018-05-27T05:42:47.205Z,70.09
2018-05-27T05:43:47.276Z,69.22
2018-05-27T05:44:47.374Z,68.93
2018-05-27T05:45:47.726Z,69.60
2018-05-27T05:46:47.281Z,68.93
2018-05-27T05:47:47.298Z,68.16
2018-05-27T05:48:47.317Z,68.93
2018-05-27T05:49:47.344Z,69.31
2018-05-27T05:50:47.355Z,68.93
2018-05-27T05:51:47.370Z,69.70
2018-05-27T05:52:47.443Z,69.31
2018-05-27T05:53:47.410Z,68.84
2018-05-27T05:54:47.430Z,69.41
2018-05-27T05:55:47.459Z,69.60
2018-05-27T05:56:47.463Z,69.51
2018-05-27T05:57:47.481Z,69.51
2018-05-27T05:58:47.552Z,68.74
2018-05-27T05:59:47.518Z,69.22
2018-05-27T06:00:47.536Z,69.31
2018-05-27T06:01:47.556Z,69.70
2018-05-27T06:02:47.577Z,69.22
2018-05-27T06:03:47.599Z,68.84
2018-05-27T06:04:47.651Z,68.93
2018-05-27T06:05:47.628Z,70.37
2018-05-27T06:06:47.647Z,69.60
2018-05-27T06:07:47.665Z,69.31
2018-05-27T06:08:47.683Z,68.74
2018-05-27T06:09:47.701Z,69.12
2018-05-27T06:10:47.722Z,68.38
2018-05-27T06:11:47.741Z,68.44
2018-05-27T06:12:47.759Z,68.68
2018-05-27T06:13:47.783Z,68.87
2018-05-27T06:14:47.794Z,69.15
2018-05-27T06:15:47.812Z,68.96
2018-05-27T06:16:47.864Z,68.96
2018-05-27T06:17:47.850Z,68.38
2018-05-27T06:18:47.918Z,68.38
2018-05-27T06:19:48.046Z,68.19
2018-05-27T06:20:47.905Z,68.87
2018-05-27T06:21:47.924Z,68.58
2018-05-27T06:22:47.942Z,68.80
2018-05-27T06:23:47.996Z,67.74
2018-05-27T06:24:47.980Z,68.13
2018-05-27T06:25:48.075Z,67.16
2018-05-27T06:26:48.016Z,67.36
2018-05-27T06:27:48.042Z,67.74
2018-05-27T06:28:48.051Z,68.13
2018-05-27T06:29:48.069Z,68.23
2018-05-27T06:30:48.090Z,67.55
2018-05-27T06:31:48.109Z,67.84
2018-05-27T06:32:48.129Z,67.55
2018-05-27T06:33:48.144Z,67.55
2018-05-27T06:34:48.165Z,67.26
2018-05-27T06:35:48.185Z,66.78
2018-05-27T06:36:48.271Z,67.26
2018-05-27T06:37:48.241Z,66.78
2018-05-27T06:38:48.338Z,67.26
2018-05-27T06:39:48.260Z,67.94
2018-05-27T06:40:48.273Z,67.16
2018-05-27T06:41:48.296Z,67.36
2018-05-27T06:42:48.325Z,66.88
2018-05-27T06:43:48.333Z,66.88
2018-05-27T06:44:48.519Z,67.16
2018-05-27T06:45:48.373Z,67.26
2018-05-27T06:46:48.390Z,66.88
2018-05-27T06:47:48.405Z,66.88
2018-05-27T06:48:48.441Z,67.00
2018-05-27T06:49:48.443Z,66.39
2018-05-27T06:50:48.894Z,66.33
2018-05-27T06:51:48.480Z,66.72
2018-05-27T06:52:48.502Z,67.10
2018-05-27T06:54:48.802Z,66.24
2018-05-27T06:55:49.094Z,66.04
2018-05-27T06:56:48.716Z,65.75
2018-05-27T06:58:48.609Z,65.66
2018-05-27T06:59:48.638Z,66.04
2018-05-27T07:00:48.648Z,65.78
2018-05-27T07:01:48.675Z,65.47
2018-05-27T07:02:48.687Z,65.88
2018-05-27T07:03:48.704Z,65.88
2018-05-27T07:04:48.758Z,66.75
2018-05-27T07:05:48.741Z,66.46
2018-05-27T07:06:48.762Z,66.17
2018-05-27T07:07:48.778Z,65.78
2018-05-27T07:08:48.805Z,64.24
2018-05-27T07:09:48.815Z,63.85
2018-05-27T07:10:48.841Z,63.57
2018-05-27T07:11:49.036Z,63.09
2018-05-27T07:12:48.893Z,63.70
2018-05-27T07:13:48.912Z,62.82
2018-05-27T07:14:48.922Z,62.82
2018-05-27T07:15:48.968Z,63.31
2018-05-27T07:16:48.951Z,62.54
2018-05-27T07:17:48.969Z,63.18
2018-05-27T07:18:48.986Z,63.12
2018-05-27T07:19:49.007Z,62.73
2018-05-27T07:20:49.044Z,62.63
2018-05-27T07:21:49.053Z,62.92
2018-05-27T07:22:49.062Z,62.34
2018-05-27T07:23:49.093Z,62.54
2018-05-27T07:24:49.108Z,62.15
2018-05-27T07:25:49.123Z,62.54
2018-05-27T07:26:49.301Z,62.05
2018-05-27T07:27:49.220Z,62.66
2018-05-27T07:28:49.350Z,62.66
2018-05-27T07:29:49.200Z,62.66
2018-05-27T07:30:49.222Z,62.76
2018-05-27T07:31:49.232Z,62.37
2018-05-27T07:32:49.252Z,62.28
2018-05-27T07:33:49.269Z,61.80
2018-05-27T07:34:49.293Z,61.70
2018-05-27T07:36:49.331Z,62.08
2018-05-27T07:37:49.348Z,62.47
2018-05-27T07:38:49.359Z,62.76
2018-05-27T07:39:49.379Z,62.37
2018-05-27T07:40:49.396Z,62.47
2018-05-27T07:41:49.418Z,62.86
2018-05-27T07:42:49.436Z,62.18
2018-05-27T07:43:49.456Z,62.47
2018-05-27T07:44:49.481Z,61.73
2018-05-27T07:45:49.493Z,61.31
2018-05-27T07:46:49.522Z,61.89
2018-05-27T07:47:49.534Z,62.28
2018-05-27T07:48:49.558Z,62.28
2018-05-27T07:49:49.576Z,61.54
2018-05-27T07:50:49.591Z,61.63
2018-05-27T07:51:49.613Z,61.73
2018-05-27T07:52:49.630Z,61.83
2018-05-27T07:53:49.653Z,61.63
2018-05-27T07:54:49.669Z,61.83
2018-05-27T07:55:49.689Z,61.83
2018-05-27T07:56:49.707Z,61.73
2018-05-27T07:57:49.725Z,62.02
2018-05-27T07:58:49.759Z,61.54
2018-05-27T07:59:49.767Z,61.63
2018-05-27T08:00:50.352Z,61.44
2018-05-27T08:01:50.091Z,61.54
2018-05-27T08:02:49.843Z,60.86
2018-05-27T08:03:49.844Z,60.60
2018-05-27T08:04:49.868Z,60.69
2018-05-27T08:05:49.892Z,61.18
2018-05-27T08:06:49.900Z,60.99
2018-05-27T08:07:49.930Z,60.79
2018-05-27T08:08:49.940Z,60.89
2018-05-27T08:09:49.975Z,60.82
2018-05-27T08:10:49.987Z,61.21
2018-05-27T08:11:50.308Z,61.11
2018-05-27T08:12:50.016Z,60.34
2018-05-27T08:13:50.051Z,59.86
2018-05-27T08:14:50.059Z,60.24
2018-05-27T08:15:50.079Z,59.56
2018-05-27T08:16:50.093Z,59.28
2018-05-27T08:17:50.115Z,58.60
2018-05-27T08:18:50.145Z,58.60
2018-05-27T08:19:50.195Z,59.76
2018-05-27T08:20:50.174Z,59.95
2018-05-27T08:21:50.446Z,59.86
2018-05-27T08:22:50.212Z,58.60
2018-05-27T08:23:50.232Z,59.38
2018-05-27T08:24:50.316Z,59.47
2018-05-27T08:25:50.271Z,59.31
2018-05-27T08:26:50.292Z,58.72
2018-05-27T08:27:50.313Z,58.14
2018-05-27T08:28:50.334Z,57.76
2018-05-27T08:29:50.349Z,58.24
2018-05-27T08:30:50.579Z,57.95
2018-05-27T08:31:50.401Z,58.24
2018-05-27T08:32:50.418Z,58.24
2018-05-27T08:34:50.602Z,57.50
2018-05-27T08:35:51.203Z,56.50
2018-05-27T08:36:50.498Z,56.43
2018-05-27T08:37:50.513Z,55.66
2018-05-27T08:38:50.530Z,55.27
2018-05-27T08:39:50.550Z,54.88
2018-05-27T08:40:50.569Z,55.07
2018-05-27T08:41:50.608Z,55.66
2018-05-27T08:42:50.609Z,56.34
2018-05-27T08:43:50.628Z,55.17
2018-05-27T08:44:50.651Z,55.76
2018-05-27T08:45:50.685Z,56.24
2018-05-27T08:46:50.699Z,56.24
2018-05-27T08:47:50.711Z,56.46
2018-05-27T08:48:50.778Z,56.36
2018-05-27T08:49:50.749Z,55.20
2018-05-27T08:50:50.786Z,55.10
2018-05-27T08:51:50.789Z,54.43
2018-05-27T08:52:50.808Z,54.71
2018-05-27T08:53:50.831Z,54.33
2018-05-27T08:54:50.847Z,54.43
2018-05-27T08:55:50.889Z,54.43
2018-05-27T08:56:50.887Z,55.10
2018-05-27T08:57:50.939Z,55.20
2018-05-27T08:58:50.929Z,55.20
2018-05-27T08:59:51.009Z,55.30
2018-05-27T09:00:50.986Z,54.91
2018-05-27T09:01:50.988Z,55.22
2018-05-27T09:02:51.008Z,54.71
2018-05-27T09:03:51.037Z,55.58
2018-05-27T09:04:51.049Z,55.30
2018-05-27T09:05:51.078Z,55.20
2018-05-27T09:06:51.139Z,55.00
2018-05-27T09:07:51.387Z,54.35
2018-05-27T09:08:51.147Z,53.87
2018-05-27T09:09:51.148Z,53.67
2018-05-27T09:10:51.171Z,53.19
2018-05-27T09:11:51.197Z,53.00
2018-05-27T09:12:51.211Z,52.90
2018-05-27T09:13:51.236Z,53.00
2018-05-27T09:14:51.258Z,53.70
2018-05-27T09:15:51.325Z,54.16
2018-05-27T09:16:51.545Z,53.61
2018-05-27T09:17:51.312Z,53.89
2018-05-27T09:18:51.361Z,53.02
2018-05-27T09:19:51.356Z,52.93
2018-05-27T09:20:51.462Z,53.51
2018-05-27T09:21:51.482Z,53.31
2018-05-27T09:22:51.415Z,53.80
2018-05-27T09:23:51.435Z,52.54
2018-05-27T09:24:51.492Z,52.06
2018-05-27T09:25:52.442Z,52.15
2018-05-27T09:26:51.502Z,51.69
2018-05-27T09:27:51.516Z,51.69
2018-05-27T09:28:51.540Z,51.79
2018-05-27T09:29:51.593Z,50.72
2018-05-27T09:30:51.634Z,50.24
2018-05-27T09:31:51.605Z,51.21
2018-05-27T09:32:51.619Z,50.31
2018-05-27T09:33:51.659Z,49.56
2018-05-27T09:34:51.662Z,50.72
2018-05-27T09:35:51.687Z,50.24
2018-05-27T09:36:51.704Z,50.14
2018-05-27T09:37:51.724Z,50.82
2018-05-27T09:38:51.750Z,50.43
2018-05-27T09:41:51.845Z,49.85
2018-05-27T09:42:51.849Z,50.14
2018-05-27T09:43:51.886Z,50.43
2018-05-27T09:44:51.870Z,49.87
2018-05-27T09:45:51.888Z,50.16
2018-05-27T09:46:51.915Z,50.14
2018-05-27T09:47:51.934Z,50.04
2018-05-27T09:48:52.045Z,50.92
2018-05-27T09:49:52.130Z,50.72
2018-05-27T09:50:51.993Z,51.04
2018-05-27T09:51:52.014Z,50.56
2018-05-27T09:52:52.044Z,50.36
2018-05-27T09:53:52.056Z,49.00
2018-05-27T09:54:52.110Z,49.22
2018-05-27T09:55:52.099Z,49.12
2018-05-27T09:56:52.192Z,49.39
2018-05-27T09:57:52.154Z,49.87
2018-05-27T09:58:52.216Z,49.68
2018-05-27T09:59:52.189Z,50.16
2018-05-27T10:00:52.204Z,49.12
2018-05-27T10:01:52.230Z,48.90
2018-05-27T10:02:52.271Z,49.68
2018-05-27T10:03:52.278Z,49.97
2018-05-27T10:04:52.347Z,48.93
2018-05-27T10:05:52.895Z,48.61
2018-05-27T10:06:52.334Z,49.22
2018-05-27T10:07:52.352Z,49.80
2018-05-27T10:08:52.387Z,49.80
2018-05-27T10:09:52.393Z,48.54
2018-05-27T10:10:52.532Z,49.32
2018-05-27T10:11:52.440Z,49.54
2018-05-27T10:12:52.459Z,50.21
2018-05-27T10:13:52.475Z,49.63
2018-05-27T10:14:52.502Z,48.75
2018-05-27T10:15:52.521Z,49.44
2018-05-27T10:16:52.549Z,50.02
2018-05-27T10:18:52.733Z,48.85
2018-05-27T10:19:52.674Z,50.12
2018-05-27T10:20:52.623Z,50.51
2018-05-27T10:21:52.648Z,50.31
2018-05-27T10:22:52.666Z,50.51
2018-05-27T10:23:52.687Z,50.31
2018-05-27T10:24:52.709Z,50.12
2018-05-27T10:25:52.797Z,50.02
2018-05-27T10:26:52.752Z,50.12
2018-05-27T10:27:52.773Z,50.02
2018-05-27T10:28:52.817Z,50.21
2018-05-27T10:29:52.814Z,49.54
2018-05-27T10:30:52.857Z,49.15
2018-05-27T10:31:52.859Z,49.54
2018-05-27T10:32:52.893Z,49.24
2018-05-27T10:33:52.938Z,50.31
2018-05-27T10:34:52.924Z,50.12
2018-05-27T10:35:52.948Z,50.21
2018-05-27T10:36:52.968Z,50.80
2018-05-27T10:37:52.986Z,50.89
2018-05-27T10:38:53.011Z,51.89
2018-05-27T10:39:53.038Z,50.82
2018-05-27T10:40:53.076Z,50.24
2018-05-27T10:41:53.080Z,50.53
2018-05-27T10:42:53.097Z,50.34
2018-05-27T10:43:53.120Z,50.63
2018-05-27T10:44:53.166Z,50.14
2018-05-27T10:45:53.160Z,50.53
2018-05-27T10:46:53.203Z,51.21
2018-05-27T10:47:53.213Z,49.95
2018-05-27T10:48:53.259Z,49.92
2018-05-27T10:49:53.247Z,50.12
2018-05-27T10:50:53.275Z,50.89
2018-05-27T10:51:53.338Z,50.14
2018-05-27T10:52:53.694Z,50.82
2018-05-27T10:53:53.337Z,50.34
2018-05-27T10:54:53.357Z,50.36
2018-05-27T10:55:53.381Z,51.04
2018-05-27T10:56:53.400Z,50.16
2018-05-27T10:57:53.420Z,49.39
2018-05-27T10:58:53.441Z,49.17
2018-05-27T10:59:53.524Z,48.58
2018-05-27T11:00:53.487Z,49.07
2018-05-27T11:01:53.519Z,47.03
2018-05-27T11:02:53.536Z,47.13
2018-05-27T11:03:53.548Z,47.61
2018-05-27T11:04:53.597Z,47.25
2018-05-27T11:05:53.636Z,46.86
2018-05-27T11:06:53.615Z,46.77
2018-05-27T11:07:53.638Z,46.67
2018-05-27T11:08:53.673Z,47.44
2018-05-27T11:09:53.684Z,48.13
2018-05-27T11:10:53.815Z,48.30
2018-05-27T11:11:53.728Z,48.20
2018-05-27T11:12:53.777Z,49.19
2018-05-27T11:13:53.772Z,48.51
2018-05-27T11:14:53.799Z,48.44
2018-05-27T11:15:53.816Z,47.37
2018-05-27T11:16:53.859Z,46.50
2018-05-27T11:17:53.987Z,46.50
2018-05-27T11:18:53.912Z,46.28
2018-05-27T11:19:53.899Z,47.08
2018-05-27T11:20:53.926Z,46.59
2018-05-27T11:21:53.941Z,47.08
2018-05-27T11:22:54.078Z,46.78
2018-05-27T11:23:54.388Z,46.59
2018-05-27T11:24:54.041Z,46.59
2018-05-27T11:25:54.081Z,47.49
2018-05-27T11:26:54.051Z,47.10
2018-05-27T11:27:54.086Z,46.91
2018-05-27T11:28:54.102Z,46.71
2018-05-27T11:29:54.164Z,46.42
2018-05-27T11:30:54.150Z,46.13
2018-05-27T11:31:54.161Z,44.40
2018-05-27T11:32:54.187Z,45.67
2018-05-27T11:33:54.204Z,45.15
2018-05-27T11:34:54.230Z,44.96
2018-05-27T11:35:54.250Z,45.54
2018-05-27T11:36:54.328Z,45.06
2018-05-27T11:37:54.300Z,46.42
2018-05-27T11:38:54.347Z,45.74
2018-05-27T11:39:54.440Z,46.23
2018-05-27T11:40:54.364Z,45.54
2018-05-27T11:41:54.396Z,46.71
2018-05-27T11:42:54.408Z,46.32
2018-05-27T11:43:54.444Z,46.73
2018-05-27T11:44:54.460Z,46.64
2018-05-27T11:45:54.484Z,46.47
2018-05-27T11:46:54.499Z,45.20
2018-05-27T11:47:54.520Z,45.10
2018-05-27T11:48:54.546Z,46.47
2018-05-27T11:49:54.567Z,45.00
2018-05-27T11:50:54.609Z,44.42
2018-05-27T11:51:54.613Z,44.90
2018-05-27T11:52:54.638Z,45.78
2018-05-27T11:53:54.669Z,44.79
2018-05-27T11:54:54.682Z,44.96
2018-05-27T11:55:54.711Z,46.13
2018-05-27T11:56:54.877Z,45.25
2018-05-27T11:57:54.802Z,45.18
2018-05-27T11:58:54.866Z,45.18
2018-05-27T11:59:54.844Z,42.28
2018-05-27T12:00:54.908Z,42.18
2018-05-27T12:01:54.840Z,42.18
2018-05-27T12:02:54.883Z,42.86
2018-05-27T12:03:54.886Z,42.18
2018-05-27T12:04:54.914Z,42.38
2018-05-27T12:05:54.966Z,42.20
2018-05-27T12:06:54.955Z,41.22
2018-05-27T12:07:54.996Z,41.03
2018-05-27T12:08:55.112Z,41.13
2018-05-27T12:09:55.028Z,40.83
2018-05-27T12:10:55.124Z,42.10
2018-05-27T12:11:55.147Z,40.16
2018-05-27T12:12:55.105Z,41.13
2018-05-27T12:13:55.126Z,40.16
2018-05-27T12:14:55.160Z,40.08
2018-05-27T12:15:55.182Z,39.59
2018-05-27T12:16:55.189Z,40.47
2018-05-27T12:17:55.214Z,39.29
2018-05-27T12:18:55.259Z,38.22
2018-05-27T12:19:55.267Z,38.22
2018-05-27T12:20:55.299Z,38.59
2018-05-27T12:21:55.497Z,38.98
2018-05-27T12:22:55.331Z,39.37
2018-05-27T12:23:55.352Z,40.45
2018-05-27T12:24:55.378Z,39.78
2018-05-27T12:25:55.398Z,40.16
2018-05-27T12:26:55.439Z,40.25
2018-05-27T12:27:55.447Z,40.52
2018-05-27T12:28:55.534Z,40.33
2018-05-27T12:29:55.652Z,40.52
2018-05-27T12:30:55.621Z,40.99
2018-05-27T12:31:55.771Z,40.81
2018-05-27T12:32:55.643Z,40.72
2018-05-27T12:33:55.603Z,41.11
2018-05-27T12:34:55.612Z,40.06
2018-05-27T12:35:55.842Z,39.37
2018-05-27T12:36:55.713Z,39.39
2018-05-27T12:37:55.680Z,38.22
2018-05-27T12:38:55.705Z,38.20
2018-05-27T12:39:55.738Z,37.33
2018-05-27T12:40:55.781Z,38.59
2018-05-27T12:41:55.792Z,37.33
2018-05-27T12:42:55.803Z,37.33
2018-05-27T12:43:55.825Z,37.35
2018-05-27T12:44:55.858Z,38.61
2018-05-27T12:45:55.872Z,38.61
2018-05-27T12:46:55.897Z,38.34
2018-05-27T12:47:55.921Z,39.10
2018-05-27T12:48:55.946Z,39.00
2018-05-27T12:49:55.972Z,38.90
2018-05-27T12:50:56.019Z,39.37
2018-05-27T12:51:56.024Z,40.45
2018-05-27T12:52:56.049Z,40.25
2018-05-27T12:53:56.081Z,41.13
2018-05-27T12:54:56.092Z,41.22
2018-05-27T12:55:56.135Z,39.96
2018-05-27T12:56:56.223Z,41.13
2018-05-27T12:57:56.334Z,40.16
2018-05-27T12:58:56.400Z,40.64
2018-05-27T12:59:56.295Z,39.96
2018-05-27T13:00:56.238Z,40.16
2018-05-27T13:02:56.325Z,37.54
2018-05-27T13:03:56.317Z,38.06
2018-05-27T13:05:56.495Z,36.07